Time;durP1;ratioP1;P1;durP2;ratioP2;P2;SDS_P1;SDS_P2;PMS_P1;PMS_P2;Temp;Humidity;BMP_temperature;BMP_pressure;BME280_temperature;BME280_humidity;BME280_pressure;Samples;Min_cycle;Max_cycle;Signal;HPM_P1;HPM_P2
2022/08/31 05:17:31;;;;;;;4.47;0.35;;;17.40;1.00;;;;;;6235960;22;20035;-90
2022/08/31 05:20:25;;;;;;;1.55;0.20;;;17.40;1.00;;;;;;6196402;23;20095;-87
2022/08/31 05:22:57;;;;;;;0.43;0.22;;;17.40;1.00;;;;;;6253718;22;20024;-86
2022/08/31 05:25:47;;;;;;;1.33;0.38;;;17.60;1.00;;;;;;6246090;22;20012;-87
2022/08/31 05:28:22;;;;;;;3.72;0.47;;;17.50;1.00;;;;;;6223543;22;20066;-88
2022/08/31 05:30:57;;;;;;;0.38;0.17;;;17.60;1.00;;;;;;6252458;22;20027;-87
2022/08/31 05:33:39;;;;;;;1.45;0.40;;;17.50;1.00;;;;;;6252197;22;20012;-89
2022/08/31 05:36:07;;;;;;;3.42;0.43;;;17.40;1.00;;;;;;6254433;22;20085;-86
2022/08/31 05:38:38;;;;;;;0.50;0.20;;;17.30;1.00;;;;;;6252410;22;20398;-85
2022/08/31 05:41:08;;;;;;;1.60;0.30;;;17.30;1.00;;;;;;6228070;22;20023;-86
2022/08/31 05:43:37;;;;;;;0.77;0.30;;;17.20;1.00;;;;;;6253544;22;20098;-93
2022/08/31 05:46:43;;;;;;;0.40;0.20;;;17.40;1.00;;;;;;6228596;22;20404;-95
2022/08/31 05:50:02;;;;;;;0.80;0.47;;;17.30;1.00;;;;;;6212884;22;20023;-93
2022/08/31 05:52:36;;;;;;;2.00;0.40;;;17.60;1.00;;;;;;6215169;22;20023;-85
2022/08/31 05:55:11;;;;;;;1.15;0.40;;;17.50;1.00;;;;;;6251071;22;20028;-89
2022/08/31 05:57:59;;;;;;;1.30;0.45;;;17.60;1.00;;;;;;6253740;22;20023;-86
2022/08/31 06:00:27;;;;;;;0.60;0.22;;;17.70;1.00;;;;;;6279471;22;20012;-85
2022/08/31 06:03:10;;;;;;;1.63;0.80;;;17.50;1.00;;;;;;6252030;22;20055;-85
2022/08/31 06:05:38;;;;;;;1.50;0.50;;;17.50;1.00;;;;;;6226875;22;20099;-86
2022/08/31 06:08:19;;;;;;;0.60;0.28;;;17.80;1.00;;;;;;6279176;22;20016;-92
2022/08/31 06:10:59;;;;;;;0.88;0.45;;;17.70;1.00;;;;;;6251864;22;20100;-88
2022/08/31 06:13:27;;;;;;;0.50;0.28;;;17.60;1.00;;;;;;6250756;22;20020;-87
2022/08/31 06:15:54;;;;;;;0.70;0.22;;;17.50;1.00;;;;;;6251099;22;20016;-86
2022/08/31 06:18:22;;;;;;;1.00;0.40;;;17.60;1.00;;;;;;6226224;22;20024;-87
2022/08/31 06:25:23;;;;;;;0.75;0.40;;;17.60;1.00;;;;;;6212146;22;20062;-87
2022/08/31 06:27:50;;;;;;;2.38;0.70;;;17.60;1.00;;;;;;6226915;22;20023;-86
2022/08/31 06:30:21;;;;;;;0.93;0.50;;;17.80;1.00;;;;;;6251951;22;20067;-87
2022/08/31 06:32:49;;;;;;;2.67;0.90;;;17.70;1.00;;;;;;6226172;22;20070;-88
2022/08/31 06:35:23;;;;;;;0.77;0.30;;;17.80;1.00;;;;;;6251087;22;20094;-86
2022/08/31 06:38:08;;;;;;;0.60;0.28;;;17.70;1.00;;;;;;6251918;22;20015;-87
2022/08/31 06:40:50;;;;;;;1.17;0.55;;;17.80;1.00;;;;;;6251967;22;20016;-85
2022/08/31 06:43:40;;;;;;;3.63;0.60;;;17.70;1.00;;;;;;6251488;22;20040;-86
2022/08/31 06:46:31;;;;;;;0.77;0.52;;;17.80;1.00;;;;;;6255578;22;20024;-87
2022/08/31 06:49:09;;;;;;;0.60;0.30;;;17.70;1.00;;;;;;6252439;22;20355;-87
2022/08/31 06:51:37;;;;;;;1.25;0.50;;;17.70;1.00;;;;;;6278616;22;20038;-87
2022/08/31 06:54:07;;;;;;;1.00;0.40;;;17.80;1.00;;;;;;6226531;22;20024;-87
2022/08/31 06:57:13;;;;;;;1.85;0.60;;;17.80;1.00;;;;;;6279244;22;20027;-87
2022/08/31 10:46:34;;;;;;;1.02;0.43;;;20.90;1.00;;;;;;6217437;23;20476;-87
2022/08/31 10:49:03;;;;;;;2.78;0.63;;;20.90;1.00;;;;;;6185813;23;20025;-86
2022/08/31 10:52:04;;;;;;;1.40;0.70;;;21.00;1.00;;;;;;6190360;23;20349;-86
2022/08/31 10:54:39;;;;;;;4.82;1.35;;;21.10;1.00;;;;;;6194836;23;20020;-86
2022/08/31 10:57:31;;;;;;;1.25;0.63;;;21.20;1.00;;;;;;6185866;23;20020;-85
2022/08/31 11:00:07;;;;;;;2.35;0.63;;;21.20;1.00;;;;;;6161493;23;20021;-88
2022/08/31 11:02:54;;;;;;;2.95;0.63;;;21.30;1.00;;;;;;6185832;23;20079;-87
2022/08/31 11:05:29;;;;;;;1.65;0.60;;;21.30;1.00;;;;;;6187659;23;20020;-86
2022/08/31 11:08:48;;;;;;;1.20;0.70;;;21.40;1.00;;;;;;6217373;23;20022;-87
2022/08/31 11:11:46;;;;;;;1.13;0.70;;;21.50;1.00;;;;;;6187015;23;20047;-91
2022/08/31 11:14:43;;;;;;;2.60;0.50;;;21.50;1.00;;;;;;6186633;23;20080;-87
2022/08/31 11:17:17;;;;;;;1.42;0.38;;;21.50;1.00;;;;;;6186001;23;20445;-87
2022/08/31 11:19:55;;;;;;;1.17;0.60;;;21.50;1.00;;;;;;6217645;23;20104;-86
2022/08/31 11:22:48;;;;;;;1.45;0.80;;;21.60;1.00;;;;;;6188266;23;20025;-86
2022/08/31 11:25:23;;;;;;;2.72;0.85;;;21.60;1.00;;;;;;6186947;23;20024;-87
2022/08/31 11:28:10;;;;;;;0.77;0.47;;;21.60;1.00;;;;;;6217841;23;20016;-88
2022/08/31 11:30:44;;;;;;;1.13;0.60;;;21.80;1.00;;;;;;6185348;23;20023;-87
2022/08/31 12:02:25;;;;;;;0.95;0.30;;;22.40;1.00;;;;;;6277035;22;20082;-87
2022/08/31 12:05:01;;;;;;;0.93;0.40;;;22.40;1.00;;;;;;6276721;22;20454;-89
2022/08/31 12:07:39;;;;;;;3.58;0.47;;;22.50;1.00;;;;;;6277766;22;20012;-87
2022/08/31 12:10:32;;;;;;;2.10;0.50;;;22.60;1.00;;;;;;6249703;22;20099;-87
2022/08/31 12:13:30;;;;;;;1.88;0.52;;;22.70;1.00;;;;;;6249906;22;20026;-88
2022/08/31 12:16:20;;;;;;;3.70;0.50;;;22.60;1.00;;;;;;6251437;22;20011;-88
2022/08/31 12:23:37;;;;;;;3.78;0.40;;;22.50;1.00;;;;;;6278007;22;20014;-87
2022/08/31 12:33:27;;;;;;;3.63;1.08;;;22.90;1.00;;;;;;6277880;22;20448;-87
2022/08/31 12:36:16;;;;;;;1.02;0.43;;;23.00;1.00;;;;;;6252425;22;20443;-86
2022/08/31 12:38:44;;;;;;;0.82;0.40;;;23.10;1.00;;;;;;6276914;22;20016;-87
2022/08/31 12:41:12;;;;;;;1.48;0.40;;;22.80;1.00;;;;;;6250915;22;20019;-87
2022/08/31 12:43:44;;;;;;;3.10;0.40;;;22.80;1.00;;;;;;6225510;22;20031;-87
2022/08/31 12:46:13;;;;;;;1.45;0.40;;;22.80;1.00;;;;;;6250690;22;20023;-88
2022/08/31 12:48:56;;;;;;;4.63;0.45;;;22.70;1.00;;;;;;6250476;22;20027;-88
2022/08/31 12:52:01;;;;;;;2.27;0.50;;;23.00;1.00;;;;;;6251327;22;20035;-88
2022/08/31 13:07:22;;;;;;;1.52;0.55;;;23.50;1.00;;;;;;6253541;22;20460;-87
2022/08/31 13:10:20;;;;;;;0.95;0.30;;;23.40;1.00;;;;;;6278659;22;20019;-91
2022/08/31 13:13:04;;;;;;;1.25;0.43;;;23.30;1.00;;;;;;6280776;22;20002;-89
2022/08/31 13:15:39;;;;;;;1.70;0.50;;;23.00;1.00;;;;;;6255487;22;20067;-88
2022/08/31 13:18:13;;;;;;;4.10;0.60;;;23.20;1.00;;;;;;6274936;22;20011;-88
2022/08/31 13:20:42;;;;;;;3.83;0.80;;;23.20;1.00;;;;;;6290943;22;20024;-88
2022/08/31 13:23:22;;;;;;;1.90;0.38;;;23.20;1.00;;;;;;6253074;22;20026;-88
2022/08/31 13:26:21;;;;;;;4.45;0.60;;;23.40;1.00;;;;;;6227764;22;20073;-87
2022/08/31 13:29:03;;;;;;;1.00;0.47;;;23.50;1.00;;;;;;6280914;22;20020;-89
2022/08/31 13:31:34;;;;;;;5.22;0.82;;;23.50;1.00;;;;;;6227703;22;20020;-88
2022/08/31 13:34:10;;;;;;;3.47;0.55;;;23.30;1.00;;;;;;6225854;22;20511;-93
2022/08/31 13:36:48;;;;;;;1.90;0.60;;;23.50;1.00;;;;;;6252368;22;20335;-92
2022/08/31 13:39:26;;;;;;;1.55;0.60;;;23.50;1.00;;;;;;6251780;22;20107;-89
2022/08/31 13:42:07;;;;;;;5.30;0.90;;;23.60;1.00;;;;;;6226685;22;20043;-87
2022/08/31 13:44:39;;;;;;;3.13;0.50;;;23.70;1.00;;;;;;6252184;22;20027;-87
2022/08/31 13:47:26;;;;;;;0.90;0.28;;;23.70;1.00;;;;;;6278845;22;20344;-87
2022/08/31 13:50:21;;;;;;;1.63;0.57;;;23.80;1.00;;;;;;6251918;22;20020;-89
2022/08/31 13:52:54;;;;;;;2.85;0.45;;;23.60;1.00;;;;;;6248513;22;20351;-89
2022/08/31 13:55:42;;;;;;;2.88;0.93;;;23.70;1.00;;;;;;6230306;22;20020;-88
2022/08/31 13:58:28;;;;;;;2.20;0.45;;;23.60;1.00;;;;;;6226827;22;20016;-86
2022/08/31 14:01:23;;;;;;;1.35;0.55;;;23.70;1.00;;;;;;6251273;22;20019;-89
2022/08/31 14:03:58;;;;;;;1.58;0.65;;;23.60;1.00;;;;;;6252113;22;20062;-91
2022/08/31 14:06:38;;;;;;;1.77;0.50;;;23.90;1.00;;;;;;6228009;22;20102;-88
2022/08/31 14:09:16;;;;;;;2.30;0.60;;;23.90;1.00;;;;;;6277927;22;20494;-88
2022/08/31 14:11:52;;;;;;;4.18;0.80;;;23.90;1.00;;;;;;6226495;22;20526;-89
2022/08/31 14:14:28;;;;;;;5.25;0.50;;;23.80;1.00;;;;;;6279280;22;20031;-87
2022/08/31 14:16:57;;;;;;;3.03;0.60;;;24.00;1.00;;;;;;6227200;22;20030;-88
2022/08/31 14:19:32;;;;;;;2.58;0.47;;;24.20;1.00;;;;;;6227327;22;20026;-89
2022/08/31 14:22:38;;;;;;;2.58;0.65;;;24.60;1.00;;;;;;6252397;22;20069;-88
2022/08/31 14:25:11;;;;;;;3.20;0.60;;;24.50;1.00;;;;;;6278742;22;20355;-88
2022/08/31 14:27:41;;;;;;;3.15;1.30;;;24.30;1.00;;;;;;6240994;22;20069;-88
2022/08/31 14:30:09;;;;;;;5.20;1.85;;;24.00;1.00;;;;;;6252664;22;20015;-88
2022/08/31 14:32:35;;;;;;;22.67;2.88;;;24.20;1.00;;;;;;6279277;22;20019;-87
2022/08/31 14:35:06;;;;;;;4.40;1.63;;;24.30;1.00;;;;;;6251851;22;20029;-88
2022/08/31 14:37:42;;;;;;;3.88;1.60;;;24.80;1.00;;;;;;6279072;22;20011;-87
2022/08/31 14:40:16;;;;;;;3.00;1.10;;;25.10;1.00;;;;;;6254654;22;20374;-87
2022/08/31 14:42:43;;;;;;;1.42;0.70;;;24.70;1.00;;;;;;6251925;22;20022;-89
2022/08/31 14:45:17;;;;;;;4.97;0.98;;;24.40;1.00;;;;;;6252924;22;20119;-88
2022/08/31 14:47:47;;;;;;;3.75;1.05;;;24.80;1.00;;;;;;6278974;22;20016;-85
2022/08/31 14:50:18;;;;;;;2.92;1.35;;;24.90;1.00;;;;;;6252426;22;20039;-87
2022/08/31 14:52:54;;;;;;;2.92;1.00;;;25.10;1.00;;;;;;6279043;22;20016;-85
2022/08/31 14:55:23;;;;;;;2.45;0.70;;;25.40;1.00;;;;;;6226878;22;20043;-86
2022/08/31 14:57:57;;;;;;;1.83;0.70;;;25.30;1.00;;;;;;6253268;22;20081;-88
2022/08/31 15:00:25;;;;;;;2.08;1.17;;;25.70;1.00;;;;;;6225896;22;20031;-85
2022/08/31 15:02:52;;;;;;;2.28;1.15;;;25.70;1.00;;;;;;6252536;22;20020;-88
2022/08/31 15:05:23;;;;;;;2.25;1.10;;;25.20;1.00;;;;;;6279109;22;20095;-88
2022/08/31 15:07:52;;;;;;;3.17;1.05;;;25.50;1.00;;;;;;6251804;22;20505;-88
2022/08/31 15:14:42;;;;;;;1.35;0.60;;;25.70;1.00;;;;;;6278410;22;20348;-89
2022/08/31 15:17:33;;;;;;;;;;;;;;;;;;;;;
2022/08/31 15:20:28;;;;;;;3.55;1.10;;;26.10;1.00;;;;;;6250621;22;20015;-89
2022/08/31 15:22:55;;;;;;;5.93;3.60;;;26.10;1.00;;;;;;6277993;22;20015;-89
2022/08/31 15:25:25;;;;;;;1.92;1.00;;;26.10;1.00;;;;;;6251268;22;20394;-86
2022/08/31 15:27:52;;;;;;;2.92;0.82;;;26.40;1.00;;;;;;6251232;22;20050;-89
2022/08/31 16:16:09;;;;;;;;;;;;;;;;;;;;;
2022/08/31 16:19:30;;;;;;;2.33;0.65;;;25.20;1.00;;;;;;6093526;23;20014;-93
2022/08/31 16:22:49;;;;;;;1.30;0.50;;;25.00;1.00;;;;;;6125497;23;20105;-90
2022/08/31 16:30:24;;;;;;;2.25;0.85;;;24.70;1.00;;;;;;5933040;24;20395;-94
2022/08/31 17:04:19;;;;;;;3.28;0.68;;;24.00;1.00;;;;;;6264792;22;20020;-91
2022/08/31 17:07:31;;;;;;;1.80;0.40;;;23.80;1.00;;;;;;6200818;23;20013;-92
2022/08/31 17:10:16;;;;;;;0.70;0.45;;;23.90;1.00;;;;;;6199264;23;20036;-96
2022/08/31 17:12:55;;;;;;;2.92;0.57;;;23.20;1.00;;;;;;6223047;23;20040;-93
2022/08/31 17:15:26;;;;;;;1.98;0.50;;;23.50;1.00;;;;;;6202584;23;20024;-91
2022/08/31 17:18:45;;;;;;;1.33;0.52;;;23.50;1.00;;;;;;6199251;23;20052;-89
2022/08/31 17:21:48;;;;;;;;;;;23.60;1.00;;;;;;6183330;23;20073;-91
2022/08/31 17:25:06;;;;;;;;;;;23.50;1.00;;;;;;6212789;23;19930;-91
2022/08/31 17:28:19;;;;;;;;;;;;;;;;;;;;;
2022/08/31 17:31:36;;;;;;;;;;;23.50;1.00;;;;;;6216334;23;19914;-88
2022/08/31 17:34:56;;;;;;;;;;;23.10;1.00;;;;;;6202261;23;19923;-91
2022/08/31 17:38:52;;;;;;;;;;;22.90;1.00;;;;;;6215974;23;19994;-92
2022/08/31 17:41:49;;;;;;;;;;;22.80;1.00;;;;;;6104932;23;19940;-92
2022/08/31 17:45:41;;;;;;;;;;;22.60;1.00;;;;;;6111581;23;19945;-92
2022/08/31 17:56:00;;;;;;;;;;;22.30;1.00;;;;;;6183373;23;19998;-92
2022/08/31 17:58:57;;;;;;;;;;;22.60;1.00;;;;;;6209998;23;20300;-93
2022/08/31 18:01:54;;;;;;;;;;;22.40;1.00;;;;;;6030097;23;20369;-92
2022/08/31 18:04:25;;;;;;;;;;;22.40;1.00;;;;;;6045548;23;20402;-94
2022/08/31 18:06:55;;;;;;;;;;;22.30;1.00;;;;;;6023505;23;20280;-94
2022/08/31 18:09:42;;;;;;;;;;;22.20;1.00;;;;;;6059477;23;20402;-90
2022/08/31 18:12:16;;;;;;;;;;;21.90;1.00;;;;;;6046394;23;19918;-95
2022/08/31 18:15:23;;;;;;;;;;;21.80;1.00;;;;;;6047013;23;19924;-91
2022/08/31 18:17:47;;;;;;;;;;;22.10;1.00;;;;;;6070996;23;19924;-92
2022/08/31 18:20:36;;;;;;;;;;;22.10;1.00;;;;;;6025033;23;19918;-93
2022/08/31 18:23:38;;;;;;;;;;;21.90;1.00;;;;;;6051973;23;20286;-91
2022/08/31 18:26:38;;;;;;;;;;;22.20;1.00;;;;;;6107936;23;19956;-90
